createdAt,value
2022-10-08T00:00:59.716Z,18.98
2022-10-08T00:03:29.366Z,18.17
2022-10-08T00:05:57.992Z,19.85
2022-10-08T00:08:26.043Z,16.77
2022-10-08T00:10:57.482Z,20.02
2022-10-08T00:13:25.750Z,23.33
2022-10-08T00:15:53.756Z,18.33
2022-10-08T00:18:22.559Z,20.30
2022-10-08T00:20:50.120Z,19.40
2022-10-08T00:23:17.626Z,20.10
2022-10-08T00:25:45.558Z,20.65
2022-10-08T00:28:16.392Z,18.98
2022-10-08T00:30:43.922Z,16.27
2022-10-08T00:33:12.204Z,19.35
2022-10-08T00:35:40.478Z,18.25
2022-10-08T00:38:08.215Z,17.88
2022-10-08T00:40:45.819Z,18.90
2022-10-08T00:43:15.486Z,20.20
2022-10-08T00:45:48.221Z,19.63
2022-10-08T00:48:20.994Z,23.30
2022-10-08T00:50:48.546Z,19.25
2022-10-08T00:53:16.197Z,21.75
2022-10-08T00:55:44.794Z,18.63
2022-10-08T00:58:15.232Z,18.15
2022-10-08T01:00:44.306Z,21.75
2022-10-08T01:03:11.905Z,18.15
2022-10-08T01:05:45.608Z,17.23
2022-10-08T01:08:39.152Z,19.38
2022-10-08T01:11:06.637Z,17.15
2022-10-08T01:13:41.466Z,17.27
2022-10-08T01:16:28.076Z,21.38
2022-10-08T01:19:02.051Z,18.73
2022-10-08T01:21:30.117Z,20.75
2022-10-08T01:24:09.690Z,19.50
2022-10-08T01:26:37.192Z,17.75
2022-10-08T01:29:16.905Z,17.90
2022-10-08T01:31:46.946Z,18.63
2022-10-08T01:34:18.780Z,17.00
2022-10-08T01:36:48.705Z,21.23
2022-10-08T01:39:20.902Z,19.33
2022-10-08T01:41:56.416Z,19.95
2022-10-08T01:44:27.652Z,19.10
2022-10-08T01:46:58.714Z,17.15
2022-10-08T01:49:29.012Z,19.42
2022-10-08T01:51:59.977Z,19.52
2022-10-08T01:54:29.886Z,20.93
2022-10-08T01:57:01.090Z,18.95
2022-10-08T01:59:32.485Z,17.27
2022-10-08T02:02:00.055Z,15.43
2022-10-08T02:04:38.803Z,18.15
2022-10-08T02:07:16.964Z,15.38
2022-10-08T02:09:48.906Z,15.52
2022-10-08T02:14:49.174Z,15.55
2022-10-08T02:17:19.725Z,17.33
2022-10-08T02:19:56.811Z,13.07
2022-10-08T02:22:27.221Z,15.05
2022-10-08T02:25:00.074Z,14.52
2022-10-08T02:27:30.411Z,19.63
2022-10-08T02:30:08.925Z,14.48
2022-10-08T02:32:39.330Z,12.85
2022-10-08T02:35:19.184Z,12.63
2022-10-08T02:37:50.510Z,12.35
2022-10-08T02:40:19.047Z,13.93
2022-10-08T02:42:50.099Z,12.70
2022-10-08T02:45:20.973Z,13.00
2022-10-08T02:47:51.453Z,16.30
2022-10-08T02:50:21.670Z,13.88
2022-10-08T02:52:50.924Z,10.88
2022-10-08T02:55:30.747Z,14.00
2022-10-08T02:58:03.851Z,13.68
2022-10-08T03:00:35.171Z,10.30
2022-10-08T03:03:08.266Z,12.77
2022-10-08T03:05:37.165Z,13.75
2022-10-08T03:08:06.001Z,12.02
2022-10-08T03:10:35.000Z,10.10
2022-10-08T03:13:03.473Z,8.90
2022-10-08T03:15:33.033Z,9.60
2022-10-08T03:18:01.835Z,10.48
2022-10-08T03:20:30.860Z,9.43
2022-10-08T03:23:02.352Z,9.15
2022-10-08T03:25:29.866Z,8.98
2022-10-08T03:27:57.401Z,8.57
2022-10-08T03:30:24.951Z,8.90
2022-10-08T03:32:52.545Z,8.65
2022-10-08T03:35:20.035Z,9.40
2022-10-08T03:37:47.542Z,8.27
2022-10-08T03:40:15.180Z,8.90
2022-10-08T03:42:42.665Z,9.43
2022-10-08T03:45:10.225Z,8.43
2022-10-08T03:47:37.857Z,9.13
2022-10-08T03:50:05.956Z,8.07
2022-10-08T03:52:33.683Z,8.18
2022-10-08T03:55:01.214Z,9.50
2022-10-08T03:57:28.722Z,9.73
2022-10-08T03:59:56.237Z,8.02
2022-10-08T04:02:23.832Z,11.02
2022-10-08T04:04:51.543Z,8.27
2022-10-08T04:07:19.060Z,8.35
2022-10-08T04:09:46.547Z,7.57
2022-10-08T04:12:14.053Z,7.38
2022-10-08T04:14:41.601Z,9.65
2022-10-08T04:17:09.175Z,7.47
2022-10-08T04:19:36.696Z,9.48
2022-10-08T04:22:04.226Z,7.50
2022-10-08T04:24:31.770Z,8.40
2022-10-08T04:26:59.254Z,10.57
2022-10-08T04:29:26.754Z,7.68
2022-10-08T04:31:54.232Z,7.45
2022-10-08T04:34:21.722Z,6.07
2022-10-08T04:36:49.210Z,7.68
2022-10-08T04:39:16.755Z,9.48
2022-10-08T04:41:44.271Z,7.47
2022-10-08T04:44:11.754Z,11.20
2022-10-08T04:46:39.382Z,6.93
2022-10-08T04:49:06.930Z,6.97
2022-10-08T04:51:34.431Z,7.25
2022-10-08T04:54:01.917Z,6.15
2022-10-08T04:56:30.707Z,7.78
2022-10-08T04:58:59.214Z,9.20
2022-10-08T05:01:27.660Z,7.78
2022-10-08T05:03:56.712Z,6.75
2022-10-08T05:06:27.021Z,7.25
2022-10-08T05:08:54.614Z,9.07
2022-10-08T05:11:24.714Z,8.85
2022-10-08T05:13:56.237Z,6.25
2022-10-08T05:16:24.204Z,9.13
2022-10-08T05:18:52.125Z,6.93
2022-10-08T05:21:21.353Z,7.35
2022-10-08T05:23:48.859Z,7.38
2022-10-08T05:26:18.419Z,8.00
2022-10-08T05:28:49.651Z,7.60
2022-10-08T05:31:17.878Z,8.52
2022-10-08T05:33:45.714Z,6.15
2022-10-08T05:36:18.148Z,8.25
2022-10-08T05:38:45.749Z,8.80
2022-10-08T05:41:13.330Z,7.10
2022-10-08T05:43:40.984Z,6.75
2022-10-08T05:46:08.608Z,7.63
2022-10-08T05:48:36.295Z,14.60
2022-10-08T05:51:04.844Z,5.75
2022-10-08T05:53:32.434Z,6.93
2022-10-08T05:56:00.879Z,6.97
2022-10-08T05:58:30.538Z,7.40
2022-10-08T06:00:59.195Z,9.20
2022-10-08T06:03:27.143Z,5.95
2022-10-08T06:05:54.891Z,6.13
2022-10-08T06:08:22.770Z,8.25
2022-10-08T06:10:51.657Z,7.53
2022-10-08T06:13:19.638Z,9.02
2022-10-08T06:16:00.327Z,8.93
2022-10-08T06:18:28.879Z,7.13
2022-10-08T06:20:56.381Z,7.47
2022-10-08T06:23:24.398Z,7.57
2022-10-08T06:25:51.899Z,7.50
2022-10-08T06:28:19.417Z,7.50
2022-10-08T06:30:46.994Z,7.53
2022-10-08T06:33:16.760Z,6.38
2022-10-08T06:35:44.279Z,7.65
2022-10-08T06:38:11.792Z,8.00
2022-10-08T06:40:40.176Z,10.38
2022-10-08T06:43:08.060Z,8.82
2022-10-08T06:45:39.348Z,10.75
2022-10-08T06:48:07.069Z,12.05
2022-10-08T06:50:35.154Z,6.18
2022-10-08T06:53:03.259Z,11.07
2022-10-08T06:55:31.939Z,10.15
2022-10-08T06:57:59.629Z,11.50
2022-10-08T07:00:27.185Z,9.85
2022-10-08T07:02:54.742Z,9.23
2022-10-08T07:05:22.244Z,6.70
2022-10-08T07:07:49.823Z,8.05
2022-10-08T07:10:18.595Z,7.55
2022-10-08T07:12:46.502Z,10.15
2022-10-08T07:15:14.219Z,10.23
2022-10-08T07:17:41.730Z,8.00
2022-10-08T07:20:09.384Z,9.25
2022-10-08T07:22:36.910Z,6.43
2022-10-08T07:25:04.539Z,7.35
2022-10-08T07:27:32.030Z,7.47
2022-10-08T07:29:59.536Z,8.88
2022-10-08T07:32:27.101Z,13.25
2022-10-08T07:34:57.904Z,10.02
2022-10-08T07:37:27.504Z,10.07
2022-10-08T07:39:54.998Z,8.25
2022-10-08T07:42:22.503Z,5.78
2022-10-08T07:44:50.134Z,7.43
2022-10-08T07:47:17.647Z,9.05
2022-10-08T07:49:45.181Z,8.13
2022-10-08T07:52:12.668Z,5.75
2022-10-08T07:54:40.501Z,8.45
2022-10-08T07:57:08.313Z,11.98
2022-10-08T07:59:35.847Z,7.45
2022-10-08T08:02:03.495Z,7.47
2022-10-08T08:04:31.214Z,6.85
2022-10-08T08:06:58.771Z,8.70
2022-10-08T08:09:26.302Z,5.75
2022-10-08T08:11:53.821Z,10.25
2022-10-08T08:14:21.531Z,9.00
2022-10-08T08:16:49.219Z,7.85
2022-10-08T08:19:16.745Z,8.88
2022-10-08T08:21:44.250Z,8.45
2022-10-08T08:24:12.580Z,9.15
2022-10-08T08:26:41.351Z,9.38
2022-10-08T08:29:10.910Z,8.77
2022-10-08T08:31:40.348Z,7.75
2022-10-08T08:34:09.304Z,11.23
2022-10-08T08:36:37.679Z,7.60
2022-10-08T08:39:05.920Z,5.80
2022-10-08T08:41:45.752Z,6.43
2022-10-08T08:44:16.272Z,9.18
2022-10-08T08:46:45.963Z,11.23
2022-10-08T08:49:22.290Z,7.03
2022-10-08T08:51:49.816Z,7.20
2022-10-08T08:54:17.349Z,9.55
2022-10-08T08:56:44.990Z,8.10
2022-10-08T08:59:23.347Z,9.18
2022-10-08T09:01:51.643Z,10.93
2022-10-08T09:04:32.819Z,8.20
2022-10-08T09:07:01.936Z,11.30
2022-10-08T09:09:44.830Z,13.32
2022-10-08T09:12:20.848Z,9.02
2022-10-08T09:14:52.002Z,6.43
2022-10-08T09:17:20.467Z,7.55
2022-10-08T09:19:49.253Z,14.75
2022-10-08T09:22:21.502Z,7.13
2022-10-08T09:25:08.561Z,7.18
2022-10-08T09:27:53.719Z,12.32
2022-10-08T09:30:28.775Z,8.48
2022-10-08T09:32:58.248Z,9.85
2022-10-08T09:35:26.161Z,8.27
2022-10-08T09:37:53.997Z,7.63
2022-10-08T09:40:22.983Z,11.05
2022-10-08T09:43:09.427Z,10.10
2022-10-08T09:45:39.988Z,10.85
2022-10-08T09:48:21.597Z,9.65
2022-10-08T09:50:54.734Z,7.25
2022-10-08T09:53:23.256Z,12.85
2022-10-08T09:55:54.421Z,9.20
2022-10-08T09:58:22.370Z,11.00
2022-10-08T10:00:57.765Z,12.00
2022-10-08T10:03:27.487Z,10.82
2022-10-08T10:05:56.181Z,8.38
2022-10-08T10:08:48.274Z,13.02
2022-10-08T10:13:44.128Z,10.68
2022-10-08T10:16:17.651Z,11.05
2022-10-08T10:18:51.231Z,8.45
2022-10-08T10:21:22.238Z,8.95
2022-10-08T10:23:56.485Z,11.33
2022-10-08T10:26:26.498Z,12.80
2022-10-08T10:28:58.642Z,11.70
2022-10-08T10:31:28.889Z,10.15
2022-10-08T10:33:56.450Z,8.93
2022-10-08T10:36:24.582Z,13.48
2022-10-08T10:39:18.897Z,8.43
2022-10-08T10:41:53.449Z,15.32
2022-10-08T10:44:23.911Z,17.60
2022-10-08T10:46:52.653Z,14.23
2022-10-08T10:49:20.905Z,11.38
2022-10-08T10:52:07.145Z,13.35
2022-10-08T10:54:37.752Z,12.05
2022-10-08T10:57:24.170Z,12.88
2022-10-08T11:00:18.308Z,11.98
2022-10-08T11:02:49.162Z,13.00
2022-10-08T11:05:16.958Z,16.87
2022-10-08T11:08:03.258Z,13.23
2022-10-08T11:10:49.536Z,7.80
2022-10-08T11:13:32.877Z,11.27
2022-10-08T11:16:08.160Z,13.50
2022-10-08T11:18:38.678Z,11.05
2022-10-08T11:21:25.113Z,11.48
2022-10-08T11:24:02.425Z,13.73
2022-10-08T11:26:39.733Z,11.95
2022-10-08T11:29:17.552Z,10.32
2022-10-08T11:31:47.937Z,12.38
2022-10-08T11:34:24.734Z,9.68
2022-10-08T11:37:11.012Z,10.25
2022-10-08T11:39:45.374Z,12.30
2022-10-08T11:42:20.112Z,11.00
2022-10-08T11:44:47.630Z,14.73
2022-10-08T11:47:33.904Z,13.38
2022-10-08T11:50:01.932Z,15.30
2022-10-08T11:52:29.827Z,11.05
2022-10-08T11:54:57.855Z,12.75
2022-10-08T11:58:06.200Z,13.57
2022-10-08T12:00:27.312Z,19.88
2022-10-08T12:02:56.103Z,14.13
2022-10-08T12:05:23.694Z,9.93
2022-10-08T12:07:55.866Z,14.63
2022-10-08T12:10:36.902Z,12.32
2022-10-08T12:13:15.353Z,13.75
2022-10-08T12:15:45.071Z,16.40
2022-10-08T12:18:13.411Z,15.07
2022-10-08T12:20:42.343Z,15.27
2022-10-08T12:23:22.102Z,14.10
2022-10-08T12:26:02.651Z,13.75
2022-10-08T12:28:32.206Z,14.60
2022-10-08T12:31:01.662Z,14.63
2022-10-08T12:33:29.803Z,16.15
2022-10-08T12:36:20.042Z,10.88
2022-10-08T12:38:51.201Z,15.30
2022-10-08T12:41:25.241Z,18.73
2022-10-08T12:44:08.307Z,10.57
2022-10-08T12:46:50.092Z,11.45
2022-10-08T12:49:36.677Z,11.80
2022-10-08T12:52:17.515Z,12.23
2022-10-08T12:54:52.602Z,14.40
2022-10-08T12:57:24.820Z,16.05
2022-10-08T12:59:52.518Z,16.98
2022-10-08T13:02:26.253Z,14.27
2022-10-08T13:04:54.128Z,14.82
2022-10-08T13:07:26.639Z,15.45
2022-10-08T13:09:55.060Z,14.65
2022-10-08T13:12:23.190Z,19.67
2022-10-08T13:15:05.787Z,15.48
2022-10-08T13:17:34.657Z,14.25
2022-10-08T13:20:11.751Z,18.70
2022-10-08T13:22:39.269Z,14.10
2022-10-08T13:25:07.381Z,13.45
2022-10-08T13:27:35.022Z,12.70
2022-10-08T13:30:22.458Z,18.10
2022-10-08T13:32:49.983Z,19.38
2022-10-08T13:35:22.597Z,19.02
2022-10-08T13:37:53.983Z,17.00
2022-10-08T13:40:23.318Z,15.10
2022-10-08T13:42:55.318Z,14.80
2022-10-08T13:45:24.010Z,14.18
2022-10-08T13:47:51.634Z,17.65
2022-10-08T13:50:19.959Z,17.63
2022-10-08T13:52:55.467Z,20.02
2022-10-08T13:55:33.409Z,18.77
2022-10-08T13:58:02.202Z,19.83
2022-10-08T14:00:30.894Z,16.02
2022-10-08T14:02:58.623Z,17.02
2022-10-08T14:05:27.837Z,19.38
2022-10-08T14:08:03.688Z,19.50
2022-10-08T14:10:31.585Z,20.77
2022-10-08T14:12:59.286Z,18.33
2022-10-08T14:15:26.772Z,19.10
2022-10-08T14:17:54.428Z,17.25
2022-10-08T14:20:21.941Z,22.05
2022-10-08T14:22:49.499Z,17.73
2022-10-08T14:25:16.977Z,21.52
2022-10-08T14:27:45.386Z,25.55
2022-10-08T14:30:13.930Z,22.48
2022-10-08T14:32:41.519Z,20.08
2022-10-08T14:35:09.345Z,19.10
2022-10-08T14:37:36.974Z,23.20
2022-10-08T14:40:05.654Z,18.33
2022-10-08T14:42:33.170Z,26.50
2022-10-08T14:45:00.709Z,21.70
2022-10-08T14:47:28.246Z,17.58
2022-10-08T14:49:55.768Z,21.30
2022-10-08T14:52:23.273Z,22.42
2022-10-08T14:54:50.841Z,26.15
2022-10-08T14:57:18.332Z,17.20
2022-10-08T14:59:45.857Z,21.90
2022-10-08T15:02:13.513Z,24.77
2022-10-08T15:04:41.063Z,24.65
2022-10-08T15:07:08.559Z,24.23
2022-10-08T15:09:37.167Z,23.63
2022-10-08T15:12:04.703Z,20.02
2022-10-08T15:14:37.091Z,19.20
2022-10-08T15:17:05.587Z,21.35
2022-10-08T15:19:33.113Z,19.00
2022-10-08T15:22:00.626Z,20.90
2022-10-08T15:24:28.165Z,22.13
2022-10-08T15:26:55.690Z,25.88
2022-10-08T15:29:23.183Z,21.90
2022-10-08T15:31:51.274Z,22.88
2022-10-08T15:34:19.786Z,19.85
2022-10-08T15:36:47.550Z,20.25
2022-10-08T15:39:19.161Z,23.85
2022-10-08T15:41:48.855Z,21.23
2022-10-08T15:44:26.038Z,19.92
2022-10-08T15:46:59.542Z,20.60
2022-10-08T15:49:31.218Z,25.05
2022-10-08T15:51:58.949Z,21.48
2022-10-08T15:54:26.446Z,19.95
2022-10-08T15:56:53.985Z,26.73
2022-10-08T15:59:21.550Z,20.55
2022-10-08T16:01:49.089Z,24.88
2022-10-08T16:04:16.619Z,22.50
2022-10-08T16:06:45.369Z,22.77
2022-10-08T16:09:17.087Z,22.02
2022-10-08T16:11:45.328Z,23.38
2022-10-08T16:14:14.091Z,25.20
2022-10-08T16:16:42.088Z,26.63
2022-10-08T16:19:12.546Z,26.38
2022-10-08T16:21:40.371Z,23.15
2022-10-08T16:24:07.917Z,28.38
2022-10-08T16:26:35.723Z,26.92
2022-10-08T16:29:07.501Z,26.60
2022-10-08T16:31:36.681Z,25.33
2022-10-08T16:34:05.913Z,24.40
2022-10-08T16:36:34.716Z,25.92
2022-10-08T16:39:03.504Z,26.30
2022-10-08T16:41:32.457Z,27.58
2022-10-08T16:44:00.753Z,26.83
2022-10-08T16:46:30.005Z,27.00
2022-10-08T16:48:58.838Z,30.70
2022-10-08T16:51:27.452Z,29.00
2022-10-08T16:53:56.033Z,27.65
2022-10-08T16:56:24.538Z,27.45
2022-10-08T16:58:52.993Z,28.33
2022-10-08T17:01:21.196Z,28.05
2022-10-08T17:03:49.590Z,32.50
2022-10-08T17:06:17.971Z,30.80
2022-10-08T17:08:45.682Z,31.20
2022-10-08T17:11:13.818Z,31.73
2022-10-08T17:13:45.160Z,29.13
2022-10-08T17:16:13.536Z,32.13
2022-10-08T17:18:43.068Z,28.98
2022-10-08T17:21:10.929Z,24.88
2022-10-08T17:23:39.111Z,28.45
2022-10-08T17:26:08.726Z,26.38
2022-10-08T17:28:37.490Z,33.63
2022-10-08T17:31:05.876Z,31.65
2022-10-08T17:33:35.926Z,27.52
2022-10-08T17:36:07.120Z,20.35
2022-10-08T17:38:35.223Z,23.13
2022-10-08T17:41:10.182Z,18.50
2022-10-08T17:43:37.697Z,20.08
2022-10-08T17:46:15.460Z,20.05
2022-10-08T17:48:43.508Z,18.67
2022-10-08T17:51:17.439Z,14.65
2022-10-08T17:53:45.342Z,15.77
2022-10-08T17:56:14.823Z,14.82
2022-10-08T17:58:42.333Z,12.80
2022-10-08T18:01:14.543Z,14.00
2022-10-08T18:03:42.950Z,17.15
2022-10-08T18:06:11.453Z,16.75
2022-10-08T18:08:39.125Z,11.77
2022-10-08T18:11:07.897Z,20.05
2022-10-08T18:13:35.811Z,12.50
2022-10-08T18:16:04.648Z,14.10
2022-10-08T18:18:32.409Z,11.95
2022-10-08T18:21:01.260Z,12.93
2022-10-08T18:23:29.348Z,18.92
2022-10-08T18:26:06.926Z,17.67
2022-10-08T18:28:35.282Z,16.73
2022-10-08T18:31:06.758Z,13.73
2022-10-08T18:33:35.593Z,15.25
2022-10-08T18:36:09.208Z,19.42
2022-10-08T18:38:36.844Z,15.63
2022-10-08T18:41:17.959Z,14.43
2022-10-08T18:43:46.428Z,14.30
2022-10-08T18:46:14.773Z,16.27
2022-10-08T18:48:42.668Z,14.18
2022-10-08T18:51:12.054Z,16.75
2022-10-08T18:53:40.616Z,15.55
2022-10-08T18:56:10.105Z,16.92
2022-10-08T18:58:38.288Z,15.57
2022-10-08T19:01:06.383Z,18.00
2022-10-08T19:03:34.029Z,14.80
2022-10-08T19:06:01.697Z,20.20
2022-10-08T19:08:29.385Z,23.30
2022-10-08T19:10:57.064Z,15.80
2022-10-08T19:13:24.709Z,17.83
2022-10-08T19:15:52.238Z,19.38
2022-10-08T19:18:19.828Z,25.23
2022-10-08T19:20:47.345Z,18.35
2022-10-08T19:23:14.881Z,16.45
2022-10-08T19:25:42.361Z,14.32
2022-10-08T19:28:09.913Z,16.33
2022-10-08T19:30:37.474Z,18.33
2022-10-08T19:33:05.052Z,14.75
2022-10-08T19:35:32.600Z,16.98
2022-10-08T19:38:00.107Z,22.42
2022-10-08T19:40:27.740Z,18.17
2022-10-08T19:42:55.302Z,15.75
2022-10-08T19:45:22.880Z,19.55
2022-10-08T19:47:50.408Z,20.77
2022-10-08T19:50:17.913Z,16.33
2022-10-08T19:52:49.717Z,17.02
2022-10-08T19:55:19.367Z,20.33
2022-10-08T19:57:46.856Z,18.65
2022-10-08T20:00:14.662Z,18.45
2022-10-08T20:02:42.248Z,21.65
2022-10-08T20:05:09.953Z,16.65
2022-10-08T20:07:37.630Z,15.27
2022-10-08T20:10:05.358Z,18.20
2022-10-08T20:12:32.867Z,14.60
2022-10-08T20:15:00.394Z,18.58
2022-10-08T20:17:27.885Z,19.02
2022-10-08T20:20:05.338Z,15.38
2022-10-08T20:22:42.875Z,13.13
2022-10-08T20:25:10.518Z,18.52
2022-10-08T20:27:38.016Z,23.00
2022-10-08T20:30:05.862Z,18.08
2022-10-08T20:32:33.385Z,15.05
2022-10-08T20:35:01.034Z,16.52
2022-10-08T20:37:28.560Z,17.73
2022-10-08T20:39:56.073Z,16.35
2022-10-08T20:42:23.585Z,16.58
2022-10-08T20:44:51.233Z,23.10
2022-10-08T20:47:18.755Z,19.85
2022-10-08T20:49:46.262Z,19.33
2022-10-08T20:52:13.770Z,18.60
2022-10-08T20:54:41.298Z,21.33
2022-10-08T20:57:08.806Z,16.70
2022-10-08T20:59:36.324Z,18.40
2022-10-08T21:02:05.504Z,17.80
2022-10-08T21:04:33.044Z,14.93
2022-10-08T21:07:00.756Z,17.52
2022-10-08T21:09:28.270Z,18.50
2022-10-08T21:11:56.054Z,17.00
2022-10-08T21:14:23.631Z,17.00
2022-10-08T21:16:51.522Z,16.60
2022-10-08T21:19:21.948Z,16.77
2022-10-08T21:21:49.653Z,14.07
2022-10-08T21:24:17.244Z,17.63
2022-10-08T21:26:45.050Z,17.00
2022-10-08T21:29:13.359Z,15.05
2022-10-08T21:31:41.474Z,15.73
2022-10-08T21:34:09.535Z,11.80
2022-10-08T21:36:38.585Z,14.88
2022-10-08T21:39:07.469Z,13.77
2022-10-08T21:41:36.240Z,14.23
2022-10-08T21:44:05.554Z,15.50
2022-10-08T21:46:34.714Z,14.02
2022-10-08T21:49:06.964Z,14.15
2022-10-08T21:51:35.169Z,14.00
2022-10-08T21:54:04.000Z,13.18
2022-10-08T21:56:32.349Z,16.20
2022-10-08T21:59:00.924Z,13.90
2022-10-08T22:01:28.503Z,13.90
2022-10-08T22:04:00.084Z,17.65
2022-10-08T22:06:29.080Z,18.15
2022-10-08T22:08:57.150Z,13.45
2022-10-08T22:11:25.016Z,15.68
2022-10-08T22:13:52.918Z,14.50
2022-10-08T22:16:21.895Z,16.13
2022-10-08T22:18:49.929Z,11.48
2022-10-08T22:21:18.693Z,12.05
2022-10-08T22:23:46.694Z,12.98
2022-10-08T22:26:15.847Z,10.13
2022-10-08T22:28:43.718Z,10.82
2022-10-08T22:31:12.732Z,10.10
2022-10-08T22:33:40.322Z,8.35
2022-10-08T22:36:18.907Z,10.77
2022-10-08T22:38:46.972Z,15.20
2022-10-08T22:41:16.212Z,12.82
2022-10-08T22:43:44.146Z,7.82
2022-10-08T22:46:13.237Z,10.27
2022-10-08T22:48:40.854Z,10.10
2022-10-08T22:51:09.910Z,9.60
2022-10-08T22:53:37.617Z,7.95
2022-10-08T22:56:06.346Z,11.65
2022-10-08T22:58:34.525Z,9.07
2022-10-08T23:01:06.454Z,11.70
2022-10-08T23:06:08.886Z,12.20
2022-10-08T23:08:36.686Z,6.85
2022-10-08T23:11:04.739Z,9.90
2022-10-08T23:13:32.749Z,12.20
2022-10-08T23:16:18.858Z,11.55
2022-10-08T23:18:47.376Z,8.55
2022-10-08T23:21:16.334Z,10.50
2022-10-08T23:23:45.472Z,9.75
2022-10-08T23:26:13.509Z,8.02
2022-10-08T23:28:41.154Z,11.02
2022-10-08T23:31:16.433Z,8.52
2022-10-08T23:33:45.519Z,7.53
2022-10-08T23:36:14.659Z,9.68
2022-10-08T23:38:42.193Z,9.98
2022-10-08T23:41:10.893Z,9.45
2022-10-08T23:43:42.429Z,8.95
2022-10-08T23:46:10.939Z,7.95
2022-10-08T23:48:38.746Z,11.38
2022-10-08T23:51:06.660Z,8.65
2022-10-08T23:53:34.313Z,11.88
2022-10-08T23:56:02.174Z,11.07
2022-10-08T23:58:29.690Z,11.15
